Peninsula, Ohio
Current Conditions -  °F | °C
As of 3:09 AM on Tuesday 27 Jan 2015 (Local Time) from KAKR Reporting Station
Light Snow Light Snow  
Wind Chill: 11°   Ceiling: 2200
Heat Index: 20°   Visibility: 3mi
Dew Point: 15°   Wind: 7mph
Humidity: 81%   Direction: 350°N
Pressure: 29.89"   Gusts: NA
Location:  41.24°N, 81.55°W
Report Text: KAKR 270809Z AUTO 35006KT 3SM -SN OVC022 M07/M09 A2989 RMK AO2 P0000 T10671094 $
Loading
Personal Weather Stations






























Interactive Weather Map New forecast layout! Learn more

10-Day Weather Forecast

Advertisements
Track Severe Weather on mobile